createdAt,value
2022-09-01T00:04:45.874Z,0
2022-09-01T00:09:45.856Z,0
2022-09-01T00:14:45.854Z,0
2022-09-01T00:19:45.833Z,0
2022-09-01T00:24:45.867Z,0
2022-09-01T00:29:45.855Z,0
2022-09-01T00:34:45.841Z,0
2022-09-01T00:39:45.851Z,0
2022-09-01T00:44:45.825Z,0
2022-09-01T00:49:45.842Z,0
2022-09-01T00:54:45.820Z,0
2022-09-01T00:59:45.861Z,0
2022-09-01T01:04:45.821Z,0
2022-09-01T01:09:45.845Z,0
2022-09-01T01:14:45.911Z,0
2022-09-01T01:19:45.849Z,0
2022-09-01T01:24:45.835Z,0
2022-09-01T01:29:45.842Z,0
2022-09-01T01:34:46.852Z,0
2022-09-01T01:39:45.830Z,0
2022-09-01T01:44:45.805Z,0
2022-09-01T01:49:45.815Z,0
2022-09-01T01:54:45.823Z,0
2022-09-01T01:59:45.818Z,0
2022-09-01T02:04:45.800Z,0
2022-09-01T02:09:45.799Z,0
2022-09-01T02:14:45.806Z,0
2022-09-01T02:19:45.794Z,0
2022-09-01T02:24:45.826Z,0
2022-09-01T02:29:45.776Z,0
2022-09-01T02:34:45.782Z,0
2022-09-01T02:39:45.806Z,0
2022-09-01T02:44:45.828Z,0
2022-09-01T02:49:45.790Z,0
2022-09-01T02:54:45.803Z,0
2022-09-01T02:59:45.817Z,0
2022-09-01T03:04:45.868Z,0
2022-09-01T03:09:45.811Z,0
2022-09-01T03:14:45.780Z,0
2022-09-01T03:19:45.788Z,0
2022-09-01T03:24:45.774Z,0
2022-09-01T03:29:45.768Z,0
2022-09-01T03:34:45.796Z,0
2022-09-01T03:39:45.751Z,0
2022-09-01T03:44:46.888Z,0
2022-09-01T03:49:45.770Z,0
2022-09-01T03:54:45.760Z,0
2022-09-01T03:59:45.774Z,0
2022-09-01T04:04:45.729Z,0
2022-09-01T04:09:45.733Z,0
2022-09-01T04:14:45.767Z,0
2022-09-01T04:19:45.762Z,0
2022-09-01T04:24:46.357Z,0
2022-09-01T04:29:45.750Z,0
2022-09-01T04:34:45.735Z,0
2022-09-01T04:39:45.743Z,1
2022-09-01T04:44:45.750Z,2
2022-09-01T04:49:45.750Z,3
2022-09-01T04:54:45.721Z,6
2022-09-01T04:59:45.730Z,8
2022-09-01T05:04:45.723Z,6
2022-09-01T05:09:45.734Z,7
2022-09-01T05:14:45.728Z,9
2022-09-01T05:19:45.726Z,12
2022-09-01T05:24:45.738Z,9
2022-09-01T05:29:45.719Z,15
2022-09-01T05:34:45.712Z,13
2022-09-01T05:39:45.729Z,13
2022-09-01T05:44:45.728Z,15
2022-09-01T05:49:45.705Z,16
2022-09-01T05:54:45.685Z,17
2022-09-01T05:59:45.713Z,18
2022-09-01T06:04:45.724Z,19
2022-09-01T06:09:45.722Z,20
2022-09-01T06:14:45.724Z,23
2022-09-01T06:19:45.690Z,24
2022-09-01T06:24:48.322Z,23
2022-09-01T06:29:45.687Z,26
2022-09-01T06:34:45.680Z,29
2022-09-01T06:39:45.681Z,29
2022-09-01T06:44:45.674Z,31
2022-09-01T06:49:45.710Z,33
2022-09-01T06:54:45.672Z,60
2022-09-01T06:59:45.668Z,95
2022-09-01T07:04:45.680Z,100
2022-09-01T07:09:47.486Z,115
2022-09-01T07:19:48.966Z,228
2022-09-01T07:24:45.678Z,259
2022-09-01T07:29:45.691Z,320
2022-09-01T07:34:46.341Z,378
2022-09-01T07:39:49.765Z,392
2022-09-01T07:44:45.689Z,405
2022-09-01T07:50:12.972Z,424
2022-09-01T07:54:45.677Z,483
2022-09-01T07:59:45.697Z,498
2022-09-01T08:04:45.676Z,514
2022-09-01T08:09:45.648Z,528
2022-09-01T08:14:45.662Z,544
2022-09-01T08:19:45.656Z,560
2022-09-01T08:24:45.639Z,573
2022-09-01T08:29:45.658Z,585
2022-09-01T08:34:45.662Z,599
2022-09-01T08:39:45.659Z,612
2022-09-01T08:44:45.679Z,627
2022-09-01T08:49:45.911Z,641
2022-09-01T08:54:45.632Z,703
2022-09-01T08:59:45.639Z,718
2022-09-01T09:04:45.632Z,733
2022-09-01T09:09:51.219Z,751
2022-09-01T09:14:45.654Z,764
2022-09-01T09:19:45.645Z,778
2022-09-01T09:24:45.671Z,787
2022-09-01T09:29:45.662Z,793
2022-09-01T09:34:45.660Z,799
2022-09-01T09:39:45.644Z,817
2022-09-01T09:44:45.682Z,836
2022-09-01T09:49:48.816Z,849
2022-09-01T09:54:45.630Z,911
2022-09-01T09:59:58.053Z,583
2022-09-01T10:04:45.638Z,159
2022-09-01T10:09:45.624Z,139
2022-09-01T10:14:52.796Z,167
2022-09-01T10:19:45.619Z,627
2022-09-01T10:24:46.026Z,1061
2022-09-01T10:29:48.695Z,629
2022-09-01T10:34:45.623Z,1041
2022-09-01T10:39:45.649Z,665
2022-09-01T10:44:45.769Z,691
2022-09-01T10:49:46.826Z,1043
2022-09-01T10:54:55.476Z,348
2022-09-01T10:59:55.956Z,239
2022-09-01T11:04:45.788Z,197
2022-09-01T11:09:45.634Z,189
2022-09-01T11:14:45.631Z,205
2022-09-01T11:19:45.617Z,198
2022-09-01T11:24:48.310Z,247
2022-09-01T11:29:45.628Z,297
2022-09-01T11:34:45.610Z,159
2022-09-01T11:39:45.642Z,130
2022-09-01T11:44:45.630Z,153
2022-09-01T11:49:45.628Z,202
2022-09-01T11:54:45.633Z,252
2022-09-01T11:59:45.611Z,309
2022-09-01T12:04:45.589Z,340
2022-09-01T12:09:45.653Z,273
2022-09-01T12:15:04.656Z,269
2022-09-01T12:19:45.601Z,344
2022-09-01T12:24:45.609Z,736
2022-09-01T12:29:45.613Z,1032
2022-09-01T12:34:45.588Z,974
2022-09-01T12:39:45.614Z,595
2022-09-01T12:44:45.600Z,637
2022-09-01T12:49:47.853Z,904
2022-09-01T12:54:45.589Z,915
2022-09-01T12:59:45.611Z,621
2022-09-01T13:04:45.588Z,560
2022-09-01T13:09:45.897Z,792
2022-09-01T13:14:45.611Z,801
2022-09-01T13:19:45.614Z,793
2022-09-01T13:24:45.631Z,794
2022-09-01T13:29:45.608Z,460
2022-09-01T13:34:45.657Z,138
2022-09-01T13:39:45.727Z,584
2022-09-01T13:44:47.142Z,716
2022-09-01T13:50:06.289Z,399
2022-09-01T13:54:45.585Z,643
2022-09-01T13:59:45.606Z,536
2022-09-01T14:04:45.634Z,573
2022-09-01T14:09:45.602Z,653
2022-09-01T14:19:45.624Z,622
2022-09-01T14:24:45.600Z,610
2022-09-01T14:34:45.571Z,588
2022-09-01T14:39:45.589Z,583
2022-09-01T14:44:45.580Z,552
2022-09-01T14:49:45.566Z,556
2022-09-01T14:54:45.566Z,519
2022-09-01T14:59:45.574Z,531
2022-09-01T15:04:45.592Z,475
2022-09-01T15:09:45.601Z,404
2022-09-01T15:14:45.599Z,428
2022-09-01T15:19:45.572Z,362
2022-09-01T15:24:45.578Z,101
2022-09-01T15:29:45.571Z,146
2022-09-01T15:34:45.595Z,126
2022-09-01T15:39:45.607Z,108
2022-09-01T15:44:45.568Z,104
2022-09-01T15:49:45.581Z,95
2022-09-01T15:54:45.594Z,109
2022-09-01T15:59:45.566Z,117
2022-09-01T16:04:45.571Z,61
2022-09-01T16:09:45.562Z,61
2022-09-01T16:14:45.560Z,55
2022-09-01T16:19:45.569Z,43
2022-09-01T16:24:45.591Z,33
2022-09-01T16:29:45.577Z,31
2022-09-01T16:34:45.575Z,62
2022-09-01T16:39:45.575Z,54
2022-09-01T16:44:45.577Z,50
2022-09-01T16:49:45.627Z,32
2022-09-01T16:54:45.585Z,24
2022-09-01T16:59:45.598Z,26
2022-09-01T17:04:45.571Z,23
2022-09-01T17:09:45.592Z,21
2022-09-01T17:14:45.571Z,20
2022-09-01T17:19:45.543Z,17
2022-09-01T17:24:45.557Z,15
2022-09-01T17:29:45.537Z,13
2022-09-01T17:34:45.535Z,14
2022-09-01T17:39:45.525Z,13
2022-09-01T17:44:45.537Z,16
2022-09-01T17:49:45.554Z,13
2022-09-01T17:54:45.561Z,9
2022-09-01T17:59:45.507Z,6
2022-09-01T18:04:45.552Z,3
2022-09-01T18:09:45.540Z,1
2022-09-01T18:14:45.547Z,0
2022-09-01T18:19:45.562Z,0
2022-09-01T18:24:45.551Z,0
2022-09-01T18:29:45.555Z,0
2022-09-01T18:34:45.538Z,0
2022-09-01T18:39:45.541Z,0
2022-09-01T18:44:45.516Z,0
2022-09-01T18:49:45.534Z,0
2022-09-01T18:54:45.541Z,0
2022-09-01T18:59:45.526Z,0
2022-09-01T19:04:45.561Z,0
2022-09-01T19:09:45.546Z,0
2022-09-01T19:14:45.547Z,0
2022-09-01T19:19:45.550Z,0
2022-09-01T19:24:45.546Z,0
2022-09-01T19:29:45.499Z,0
2022-09-01T19:34:45.553Z,0
2022-09-01T19:39:45.542Z,0
2022-09-01T19:44:45.538Z,0
2022-09-01T19:49:45.540Z,0
2022-09-01T19:54:45.540Z,0
2022-09-01T19:59:45.506Z,0
2022-09-01T20:04:45.511Z,0
2022-09-01T20:09:45.508Z,0
2022-09-01T20:14:45.518Z,0
2022-09-01T20:19:45.523Z,0
2022-09-01T20:24:45.512Z,0
2022-09-01T20:29:45.530Z,0
2022-09-01T20:34:45.485Z,0
2022-09-01T20:39:45.483Z,0
2022-09-01T20:44:45.528Z,0
2022-09-01T20:49:45.487Z,0
2022-09-01T20:54:45.504Z,0
2022-09-01T20:59:45.559Z,0
2022-09-01T21:04:45.500Z,0
2022-09-01T21:09:45.508Z,0
2022-09-01T21:14:45.499Z,0
2022-09-01T21:19:45.496Z,0
2022-09-01T21:24:45.502Z,0
2022-09-01T21:29:45.471Z,0
2022-09-01T21:34:45.524Z,0
2022-09-01T21:39:45.475Z,0
2022-09-01T21:44:45.471Z,0
2022-09-01T21:49:45.503Z,0
2022-09-01T21:54:45.501Z,0
2022-09-01T21:59:45.488Z,0
2022-09-01T22:04:45.481Z,0
2022-09-01T22:09:45.470Z,0
2022-09-01T22:14:45.480Z,0
2022-09-01T22:19:45.486Z,0
2022-09-01T22:24:45.479Z,0
2022-09-01T22:29:45.478Z,0
2022-09-01T22:34:45.483Z,0
2022-09-01T22:39:45.479Z,0
2022-09-01T22:44:45.455Z,0
2022-09-01T22:49:45.470Z,0
2022-09-01T22:54:45.452Z,0
2022-09-01T22:59:45.442Z,0
2022-09-01T23:04:45.428Z,0
2022-09-01T23:09:45.474Z,0
2022-09-01T23:14:45.423Z,0
2022-09-01T23:19:45.426Z,0
2022-09-01T23:24:45.417Z,0
2022-09-01T23:29:45.420Z,0
2022-09-01T23:34:45.441Z,0
2022-09-01T23:39:45.391Z,0
2022-09-01T23:44:45.445Z,0
2022-09-01T23:49:45.449Z,0
2022-09-01T23:54:45.441Z,0
2022-09-01T23:59:45.418Z,0
